• Join FlightAware (Why Join?)
  • Login
  • US Flag 
Rudolph Flight #1: Arrived! 
01:41PM EST


 

Airport Tracker/Info


-or-


 

Live Flight TrackerFlight Track Log ✈ TAM3035 ✈ 18-May-2013 ✈ SBSP / CGH - SBJV / JOI

Flight Track Log - Related Links

Times and Time Zones

All times are in EDT time to prevent confusion due to time zone crossing. See the TAM3035 flight status page for this flight to view local times or setup timezone preferences in your user account.

Time Position Orientation Groundspeed Altitude Reporting Facility
EDT Latitude Longitude Course Direction KTS MPH feet Rate Location/Type
06:48AM -24.6082 -47.4512 216° Southwest  Level Estimated
06:49AM -24.6508 -47.4861 217° Southwest  Level Estimated
06:50AM -24.6934 -47.5210 217° Southwest  Level Estimated
06:51AM -24.7360 -47.5560 217° Southwest  Level Estimated
06:52AM -24.7785 -47.5909 217° Southwest  Level Estimated
06:53AM -24.8211 -47.6259 217° Southwest  Level Estimated
06:54AM -24.8636 -47.6609 217° Southwest  Level Estimated
06:55AM -24.9061 -47.6959 217° Southwest  Level Estimated
06:56AM -24.9487 -47.7310 217° Southwest  Level Estimated
06:57AM -24.9912 -47.7660 217° Southwest  Level Estimated
06:58AM -25.0337 -47.8011 217° Southwest  Level Estimated
06:59AM -25.0762 -47.8363 217° Southwest  Level Estimated
07:00AM -25.1187 -47.8714 217° Southwest  Level Estimated
07:01AM -25.1611 -47.9066 217° Southwest  Level Estimated
07:02AM -25.2036 -47.9418 217° Southwest  Level Estimated
07:03AM -25.2461 -47.9770 217° Southwest  Level Estimated
07:04AM -25.2885 -48.0122 217° Southwest  Level Estimated
07:05AM -25.3310 -48.0475 217° Southwest  Level Estimated
07:06AM -25.3734 -48.0828 217° Southwest  Level Estimated
07:07AM -25.4159 -48.1181 217° Southwest  Level Estimated
07:08AM -25.4583 -48.1535 217° Southwest  Level Estimated
07:09AM -25.5007 -48.1888 217° Southwest  Level Estimated
07:10AM -25.5431 -48.2242 217° Southwest  Level Estimated
07:11AM -25.5855 -48.2596 217° Southwest  Level Estimated
07:12AM -25.6279 -48.2951 217° Southwest  Level Estimated
07:13AM -25.6703 -48.3306 217° Southwest  Level Estimated
07:14AM -25.7127 -48.3661 217° Southwest  Level Estimated
07:15AM -25.7550 -48.4016 217° Southwest  Level Estimated
07:16AM -25.7974 -48.4371 217° Southwest  Level Estimated
07:17AM -25.8397 -48.4727 217° Southwest  Level Estimated
07:18AM -25.8821 -48.5083 217° Southwest  Level Estimated
07:19AM -25.9244 -48.5439 217° Southwest  Level Estimated
07:20AM -25.9667 -48.5796 217° Southwest  Level Estimated
07:21AM -26.0090 -48.6152 217° Southwest  Level Estimated
07:22AM -26.0513 -48.6509 217° Southwest  Level Estimated
07:23AM -26.0936 -48.6867 217° Southwest  Level Estimated
07:24AM -26.1359 -48.7224 217° Southwest  Level Estimated
07:25AM -26.1782 -48.7582 217° Southwest  Level Estimated
07:26AM -26.2205 -48.7940 217° Southwest  Level Estimated
07:27AM -26.2244 -48.7973 217° Southwest  Level Estimated
07:28AM -26.2244 -48.7973 347° North  Level Estimated
07:29AM -26.2244 -48.7973 347° North  Level Estimated
07:30AM -26.2244 -48.7973 347° North  Level Estimated
07:31AM -26.2244 -48.7973 347° North  Level Estimated
07:32AM -26.2244 -48.7973 347° North  Level Estimated
07:33AM -26.2244 -48.7973 347° North  Level Estimated
07:34AM -26.2244 -48.7973 347° North  Level Estimated
07:35AM -26.2244 -48.7973 347° North  Level Estimated
07:36AM -26.2244 -48.7973 347° North  Level Estimated
07:37AM -26.2244 -48.7973 347° North  Level Estimated
07:38AM -26.2244 -48.7973 347° North  Level Estimated
07:39AM -26.2244 -48.7973 347° North  Level Estimated
07:40AM -26.2244 -48.7973 347° North  Level Estimated
07:41AM -26.2244 -48.7973 347° North  Level Estimated
07:42AM -26.2244 -48.7973 347° North  Level Estimated